Terminal Aerodrome Forecast
Issued by NWS Memphis, TN

Home | Current Version | Previous Version | Text Only | Print | Product List | Glossary On
Versions: 1 2 3 4 5 6 7 8 9 10 11 12 13 14 15 16 17 18 19
000
FTUS44 KMEG 281130
TAFMKL
TAF
KMKL 281130Z 2812/2912 17006KT P6SM SKC
     FM281700 18010KT P6SM SKC
     FM290000 19007KT P6SM SCT250 WS020/23040KT
     FM291100 19010G16KT P6SM FEW009 BKN250=

USA.gov is the U.S. government's official web portal to all federal, state and local government web resources and services.